createdAt,value
2022-11-24T00:01:20.704Z,92
2022-11-24T00:04:45.924Z,92
2022-11-24T00:08:11.151Z,92
2022-11-24T00:11:36.381Z,92
2022-11-24T00:15:01.575Z,92
2022-11-24T00:18:26.784Z,92
2022-11-24T00:21:52.000Z,92
2022-11-24T00:25:17.195Z,92
2022-11-24T00:28:42.426Z,91
2022-11-24T00:32:07.608Z,91
2022-11-24T00:35:32.813Z,90
2022-11-24T00:38:58.032Z,91
2022-11-24T00:42:23.246Z,91
2022-11-24T00:45:48.557Z,91
2022-11-24T00:49:13.681Z,91
2022-11-24T00:52:38.931Z,91
2022-11-24T00:56:04.129Z,91
2022-11-24T00:59:29.371Z,91
2022-11-24T01:02:54.689Z,92
2022-11-24T01:06:19.816Z,92
2022-11-24T01:09:45.025Z,92
2022-11-24T01:13:10.243Z,92
2022-11-24T01:16:35.474Z,92
2022-11-24T01:20:00.704Z,92
2022-11-24T01:23:25.906Z,92
2022-11-24T01:26:51.120Z,93
2022-11-24T01:30:16.312Z,94
2022-11-24T01:33:41.527Z,94
2022-11-24T01:37:06.764Z,94
2022-11-24T01:40:31.966Z,94
2022-11-24T01:43:57.178Z,94
2022-11-24T01:47:22.379Z,93
2022-11-24T01:50:47.600Z,93
2022-11-24T01:54:12.851Z,93
2022-11-24T01:57:38.038Z,93
2022-11-24T02:01:03.307Z,93
2022-11-24T02:04:28.472Z,93
2022-11-24T02:07:53.719Z,93
2022-11-24T02:11:18.912Z,93
2022-11-24T02:14:44.095Z,93
2022-11-24T02:18:09.302Z,94
2022-11-24T02:21:34.504Z,94
2022-11-24T02:24:59.736Z,95
2022-11-24T02:28:24.984Z,95
2022-11-24T02:31:50.152Z,95
2022-11-24T02:35:15.373Z,96
2022-11-24T02:38:40.570Z,96
2022-11-24T02:42:05.785Z,96
2022-11-24T02:45:31.010Z,96
2022-11-24T02:48:56.222Z,96
2022-11-24T02:52:21.450Z,96
2022-11-24T02:55:46.630Z,96
2022-11-24T02:59:11.831Z,97
2022-11-24T03:02:37.157Z,97
2022-11-24T03:06:02.237Z,97
2022-11-24T03:09:27.443Z,97
2022-11-24T03:12:52.638Z,97
2022-11-24T03:16:17.866Z,97
2022-11-24T03:19:43.083Z,96
2022-11-24T03:23:08.286Z,96
2022-11-24T03:26:33.491Z,96
2022-11-24T03:29:58.704Z,96
2022-11-24T03:33:23.902Z,96
2022-11-24T03:36:49.135Z,96
2022-11-24T03:40:14.331Z,96
2022-11-24T03:43:43.606Z,96
2022-11-24T03:47:04.755Z,96
2022-11-24T03:50:29.961Z,96
2022-11-24T03:53:55.200Z,96
2022-11-24T03:57:20.393Z,95
2022-11-24T04:00:45.588Z,95
2022-11-24T04:04:10.804Z,95
2022-11-24T04:07:36.096Z,95
2022-11-24T04:11:01.238Z,94
2022-11-24T04:14:26.422Z,95
2022-11-24T04:17:51.638Z,95
2022-11-24T04:21:16.841Z,95
2022-11-24T04:24:42.090Z,95
2022-11-24T04:28:07.335Z,95
2022-11-24T04:31:32.582Z,95
2022-11-24T04:34:57.704Z,95
2022-11-24T04:39:20.507Z,95
2022-11-24T04:41:48.094Z,95
2022-11-24T04:45:13.346Z,95
2022-11-24T04:48:38.539Z,95
2022-11-24T04:52:03.762Z,96
2022-11-24T04:55:28.972Z,96
2022-11-24T04:58:54.195Z,96
2022-11-24T05:02:19.452Z,96
2022-11-24T05:05:44.604Z,96
2022-11-24T05:09:09.901Z,96
2022-11-24T05:12:35.124Z,96
2022-11-24T05:16:00.497Z,96
2022-11-24T05:19:29.817Z,95
2022-11-24T05:22:50.840Z,96
2022-11-24T05:26:16.032Z,96
2022-11-24T05:29:41.233Z,96
2022-11-24T05:33:06.465Z,96
2022-11-24T05:36:31.679Z,96
2022-11-24T05:39:56.868Z,96
2022-11-24T05:43:22.064Z,96
2022-11-24T05:46:47.269Z,96
2022-11-24T05:50:12.456Z,96
2022-11-24T05:53:37.688Z,96
2022-11-24T05:57:02.868Z,96
2022-11-24T06:00:28.063Z,96
2022-11-24T06:03:53.268Z,96
2022-11-24T06:07:18.578Z,96
2022-11-24T06:10:43.737Z,96
2022-11-24T06:14:11.254Z,96
2022-11-24T06:17:34.111Z,96
2022-11-24T06:21:10.059Z,96
2022-11-24T06:24:24.500Z,96
2022-11-24T06:27:49.739Z,96
2022-11-24T06:31:14.968Z,97
2022-11-24T06:34:40.133Z,97
2022-11-24T06:38:05.345Z,97
2022-11-24T06:41:30.525Z,97
2022-11-24T06:44:55.768Z,97
2022-11-24T06:48:20.975Z,97
2022-11-24T06:51:46.179Z,96
2022-11-24T06:55:11.395Z,96
2022-11-24T06:58:36.623Z,96
2022-11-24T07:02:01.863Z,96
2022-11-24T07:05:27.049Z,96
2022-11-24T07:08:52.265Z,97
2022-11-24T07:12:17.465Z,97
2022-11-24T07:15:42.662Z,97
2022-11-24T07:19:07.891Z,97
2022-11-24T07:22:33.076Z,96
2022-11-24T07:26:01.205Z,96
2022-11-24T07:29:23.474Z,96
2022-11-24T07:32:48.675Z,96
2022-11-24T07:36:13.898Z,97
2022-11-24T07:39:39.084Z,97
2022-11-24T07:43:04.292Z,97
2022-11-24T07:46:29.548Z,97
2022-11-24T07:49:54.718Z,97
2022-11-24T07:53:19.954Z,96
2022-11-24T07:56:45.132Z,97
2022-11-24T08:00:10.349Z,97
2022-11-24T08:03:35.625Z,96
2022-11-24T08:07:00.764Z,96
2022-11-24T08:10:26.009Z,96
2022-11-24T08:13:51.185Z,96
2022-11-24T08:17:16.373Z,96
2022-11-24T08:20:41.566Z,96
2022-11-24T08:24:06.971Z,96
2022-11-24T08:27:32.211Z,96
2022-11-24T08:30:57.374Z,96
2022-11-24T08:34:22.956Z,96
2022-11-24T08:37:48.158Z,96
2022-11-24T08:41:13.796Z,96
2022-11-24T08:44:39.129Z,95
2022-11-24T08:48:04.206Z,95
2022-11-24T08:51:29.424Z,95
2022-11-24T08:54:54.622Z,95
2022-11-24T08:58:19.823Z,95
2022-11-24T09:01:45.106Z,95
2022-11-24T09:05:28.989Z,95
2022-11-24T09:08:35.441Z,95
2022-11-24T09:12:00.629Z,95
2022-11-24T09:15:25.839Z,95
2022-11-24T09:18:51.098Z,94
2022-11-24T09:22:16.309Z,94
2022-11-24T09:25:41.506Z,93
2022-11-24T09:29:06.725Z,93
2022-11-24T09:32:31.923Z,93
2022-11-24T09:35:57.150Z,94
2022-11-24T09:39:22.341Z,94
2022-11-24T09:42:52.175Z,93
2022-11-24T09:46:12.820Z,93
2022-11-24T09:49:37.955Z,93
2022-11-24T09:53:03.214Z,93
2022-11-24T09:56:28.416Z,93
2022-11-24T09:59:53.626Z,93
2022-11-24T10:03:18.828Z,92
2022-11-24T10:06:44.030Z,92
2022-11-24T10:10:09.268Z,92
2022-11-24T10:13:34.446Z,92
2022-11-24T10:16:59.651Z,93
2022-11-24T10:20:24.859Z,93
2022-11-24T10:23:50.073Z,93
2022-11-24T10:27:15.342Z,94
2022-11-24T10:30:40.630Z,94
2022-11-24T10:34:05.737Z,93
2022-11-24T10:37:30.944Z,93
2022-11-24T10:40:57.678Z,92
2022-11-24T10:44:21.440Z,92
2022-11-24T10:47:46.641Z,92
2022-11-24T10:51:11.855Z,92
2022-11-24T10:54:37.081Z,92
2022-11-24T10:58:02.320Z,92
2022-11-24T11:01:27.734Z,92
2022-11-24T11:04:52.804Z,92
2022-11-24T11:08:18.055Z,92
2022-11-24T11:11:43.263Z,92
2022-11-24T11:15:08.472Z,92
2022-11-24T11:18:33.712Z,91
2022-11-24T11:21:58.882Z,91
2022-11-24T11:25:24.224Z,91
2022-11-24T11:28:49.527Z,91
2022-11-24T11:35:40.473Z,91
2022-11-24T11:39:05.668Z,90
2022-11-24T11:43:00.526Z,91
2022-11-24T11:45:57.534Z,91
2022-11-24T11:49:22.612Z,91
2022-11-24T11:52:47.863Z,90
2022-11-24T11:56:13.055Z,91
2022-11-24T11:59:38.426Z,91
2022-11-24T12:03:03.701Z,91
2022-11-24T12:06:28.827Z,91
2022-11-24T12:09:54.055Z,91
2022-11-24T12:13:19.235Z,91
2022-11-24T12:16:44.437Z,91
2022-11-24T12:20:09.664Z,91
2022-11-24T12:23:34.867Z,91
2022-11-24T12:27:00.114Z,90
2022-11-24T12:30:25.288Z,90
2022-11-24T12:33:52.417Z,91
2022-11-24T12:37:15.714Z,91
2022-11-24T12:40:46.538Z,90
2022-11-24T12:44:06.148Z,91
2022-11-24T12:47:31.329Z,91
2022-11-24T12:50:56.600Z,91
2022-11-24T12:54:22.056Z,91
2022-11-24T12:57:47.270Z,91
2022-11-24T13:01:16.356Z,91
2022-11-24T13:04:37.867Z,91
2022-11-24T13:08:02.884Z,91
2022-11-24T13:11:28.089Z,91
2022-11-24T13:14:53.302Z,91
2022-11-24T13:18:18.608Z,91
2022-11-24T13:21:43.717Z,91
2022-11-24T13:25:08.946Z,91
2022-11-24T13:28:54.299Z,90
2022-11-24T13:31:59.375Z,90
2022-11-24T13:35:24.575Z,90
2022-11-24T13:38:49.769Z,90
2022-11-24T13:42:41.349Z,91
2022-11-24T13:45:41.363Z,90
2022-11-24T13:49:06.385Z,90
2022-11-24T13:52:31.620Z,91
2022-11-24T13:55:56.798Z,90
2022-11-24T13:59:22.056Z,90
2022-11-24T14:02:47.364Z,90
2022-11-24T14:06:12.593Z,90
2022-11-24T14:09:37.867Z,90
2022-11-24T14:13:03.098Z,90
2022-11-24T14:16:28.456Z,91
2022-11-24T14:19:53.665Z,90
2022-11-24T14:23:18.976Z,90
2022-11-24T14:26:44.260Z,90
2022-11-24T14:30:09.550Z,91
2022-11-24T15:05:51.154Z,90
2022-11-24T15:09:16.388Z,90
2022-11-24T15:12:41.683Z,90
2022-11-24T15:16:06.953Z,90
2022-11-24T15:19:32.118Z,90
2022-11-24T15:22:57.432Z,89
2022-11-24T15:26:26.000Z,89
2022-11-24T15:29:47.991Z,90
2022-11-24T15:33:13.205Z,89
2022-11-24T15:36:38.439Z,89
2022-11-24T15:40:03.704Z,89
2022-11-24T15:43:28.924Z,89
2022-11-24T15:46:54.172Z,89
2022-11-24T15:50:19.443Z,90
2022-11-24T15:53:45.410Z,89
2022-11-24T15:57:10.663Z,90
2022-11-24T16:00:35.857Z,91
2022-11-24T16:04:01.045Z,91
2022-11-24T16:07:26.362Z,91
2022-11-24T16:10:51.533Z,91
2022-11-24T16:14:16.855Z,91
2022-11-24T16:17:41.982Z,91
2022-11-24T16:21:07.163Z,90
2022-11-24T16:24:32.748Z,90
2022-11-24T16:27:57.643Z,90
2022-11-24T16:31:22.957Z,90
2022-11-24T16:34:48.128Z,89
2022-11-24T16:38:13.394Z,89
2022-11-24T16:41:38.640Z,89
2022-11-24T16:45:03.842Z,90
2022-11-24T16:48:29.113Z,90
2022-11-24T16:51:54.357Z,90
2022-11-24T16:55:19.583Z,90
2022-11-24T16:58:44.820Z,91
2022-11-24T17:02:10.084Z,90
2022-11-24T17:05:35.309Z,90
2022-11-24T17:09:00.510Z,91
2022-11-24T17:12:25.719Z,90
2022-11-24T17:15:54.064Z,90
2022-11-24T17:19:16.336Z,90
2022-11-24T17:22:41.786Z,89
2022-11-24T17:26:06.983Z,89
2022-11-24T17:29:32.211Z,89
2022-11-24T17:32:57.407Z,89
2022-11-24T17:36:22.614Z,90
2022-11-24T17:40:05.882Z,90
2022-11-24T17:43:13.070Z,90
2022-11-24T17:46:38.310Z,89
2022-11-24T17:50:03.587Z,90
2022-11-24T17:53:28.804Z,90
2022-11-24T17:56:54.047Z,90
2022-11-24T18:00:19.306Z,90
2022-11-24T18:03:46.692Z,90
2022-11-24T18:07:09.885Z,89
2022-11-24T18:10:35.126Z,89
2022-11-24T18:14:01.567Z,90
2022-11-24T18:17:25.580Z,90
2022-11-24T18:20:50.859Z,90
2022-11-24T18:24:19.728Z,90
2022-11-24T18:27:41.423Z,90
2022-11-24T18:31:06.731Z,90
2022-11-24T18:34:31.986Z,91
2022-11-24T18:37:57.273Z,91
2022-11-24T18:41:22.535Z,91
2022-11-24T18:44:52.538Z,91
2022-11-24T18:48:13.094Z,92
2022-11-24T18:51:38.317Z,92
2022-11-24T18:55:03.568Z,92
2022-11-24T18:58:28.859Z,92
2022-11-24T19:01:54.161Z,92
2022-11-24T19:05:19.329Z,92
2022-11-24T19:08:44.549Z,92
2022-11-24T19:12:10.491Z,91
2022-11-24T19:15:35.014Z,91
2022-11-24T19:19:00.409Z,91
2022-11-24T19:22:25.525Z,91
2022-11-24T19:25:50.746Z,91
2022-11-24T19:29:15.988Z,91
2022-11-24T19:32:41.250Z,91
2022-11-24T19:36:06.497Z,91
2022-11-24T19:39:31.791Z,90
2022-11-24T19:42:57.020Z,91
2022-11-24T19:46:22.328Z,91
2022-11-24T19:49:47.547Z,91
2022-11-24T19:53:12.779Z,91
2022-11-24T19:56:38.057Z,91
2022-11-24T20:00:03.277Z,91
2022-11-24T20:03:28.520Z,91
2022-11-24T20:06:53.765Z,91
2022-11-24T20:10:19.019Z,91
2022-11-24T20:13:44.288Z,90
2022-11-24T20:17:09.602Z,90
2022-11-24T20:20:34.834Z,90
2022-11-24T20:24:00.079Z,90
2022-11-24T20:27:25.412Z,90
2022-11-24T20:30:50.689Z,90
2022-11-24T20:34:15.937Z,90
2022-11-24T20:37:41.252Z,90
2022-11-24T20:41:09.151Z,90
2022-11-24T20:44:31.783Z,90
2022-11-24T20:47:57.055Z,90
2022-11-24T20:51:22.244Z,90
2022-11-24T20:54:47.497Z,90
2022-11-24T20:58:12.822Z,90
2022-11-24T21:01:38.110Z,90
2022-11-24T21:05:03.284Z,90
2022-11-24T21:08:28.465Z,90
2022-11-24T21:11:53.666Z,90
2022-11-24T21:15:18.871Z,89
2022-11-24T21:18:44.081Z,89
2022-11-24T21:22:09.302Z,89
2022-11-24T21:25:34.483Z,89
2022-11-24T21:28:59.718Z,89
2022-11-24T21:32:24.964Z,89
2022-11-24T21:35:50.218Z,89
2022-11-24T21:39:15.572Z,89
2022-11-24T21:42:40.651Z,89
2022-11-24T21:46:06.008Z,89
2022-11-24T21:49:31.092Z,88
2022-11-24T21:53:00.616Z,88
2022-11-24T21:56:21.522Z,88
2022-11-24T21:59:46.714Z,88
2022-11-24T22:03:11.942Z,87
2022-11-24T22:06:37.176Z,86
2022-11-24T22:10:02.404Z,87
2022-11-24T22:13:27.668Z,85
2022-11-24T22:16:52.954Z,84
2022-11-24T22:20:18.102Z,83
2022-11-24T22:23:43.316Z,83
2022-11-24T22:27:08.509Z,82
2022-11-24T22:30:33.727Z,85
2022-11-24T22:33:58.916Z,86
2022-11-24T22:37:24.134Z,87
2022-11-24T22:40:49.337Z,85
2022-11-24T22:44:14.539Z,85
2022-11-24T22:47:39.785Z,85
2022-11-24T22:51:05.017Z,83
2022-11-24T22:54:30.219Z,82
2022-11-24T22:57:57.042Z,83
2022-11-24T23:01:20.633Z,84
2022-11-24T23:04:45.850Z,85
2022-11-24T23:08:11.081Z,83
2022-11-24T23:11:37.925Z,84
2022-11-24T23:15:01.548Z,84
2022-11-24T23:18:26.832Z,87
2022-11-24T23:21:52.120Z,88
2022-11-24T23:25:17.355Z,87
2022-11-24T23:28:42.563Z,87
2022-11-24T23:32:07.768Z,88
2022-11-24T23:35:33.015Z,89
2022-11-24T23:38:58.249Z,89
2022-11-24T23:42:23.484Z,90
2022-11-24T23:45:48.754Z,90
2022-11-24T23:49:13.948Z,90
2022-11-24T23:52:39.165Z,91
2022-11-24T23:56:04.378Z,91
2022-11-24T23:59:29.612Z,91
